createdAt,value
2022-08-14T00:02:27.788Z,100002.64
2022-08-14T00:05:00.303Z,99993.60
2022-08-14T00:07:29.048Z,99996.81
2022-08-14T00:10:49.129Z,99994.13
2022-08-14T00:12:56.921Z,99986.22
2022-08-14T00:15:43.643Z,99979.95
2022-08-14T00:18:30.738Z,99974.48
2022-08-14T00:21:11.009Z,99971.89
2022-08-14T00:23:41.203Z,99973.34
2022-08-14T00:26:23.247Z,99969.48
2022-08-14T00:28:54.197Z,99966.16
2022-08-14T00:31:35.104Z,99967.29
2022-08-14T00:34:36.400Z,99969.00
2022-08-14T00:37:01.918Z,99966.24
2022-08-14T00:39:31.195Z,99962.06
2022-08-14T00:42:01.023Z,99961.98
2022-08-14T00:44:32.434Z,99955.91
2022-08-14T00:47:06.562Z,99950.73
2022-08-14T00:49:43.223Z,99945.89
2022-08-14T00:52:17.679Z,99943.80
2022-08-14T00:54:58.242Z,99944.84
2022-08-14T00:57:35.432Z,99941.94
2022-08-14T01:00:34.031Z,99945.40
2022-08-14T01:03:05.921Z,99937.91
2022-08-14T01:05:51.026Z,99940.98
2022-08-14T01:08:52.361Z,99943.38
2022-08-14T01:11:19.121Z,99939.45
2022-08-14T01:13:55.786Z,99940.61
2022-08-14T01:16:31.613Z,99942.67
2022-08-14T01:19:19.761Z,99944.15
2022-08-14T01:21:53.286Z,99945.09
2022-08-14T01:24:34.156Z,99945.22
2022-08-14T01:27:05.508Z,99942.48
2022-08-14T01:29:59.078Z,99939.41
2022-08-14T01:32:26.582Z,99941.55
2022-08-14T01:35:18.510Z,99933.48
2022-08-14T01:37:56.472Z,99935.36
2022-08-14T01:40:36.833Z,99936.64
2022-08-14T01:43:15.875Z,99934.73
2022-08-14T01:45:57.837Z,99933.41
2022-08-14T01:48:37.009Z,99935.44
2022-08-14T01:51:19.147Z,99933.08
2022-08-14T01:53:55.367Z,99934.75
2022-08-14T01:56:37.482Z,99935.92
2022-08-14T01:59:22.192Z,99935.80
2022-08-14T02:01:59.081Z,99938.96
2022-08-14T02:04:54.686Z,99939.61
2022-08-14T02:07:34.886Z,99940.73
2022-08-14T02:10:15.978Z,99939.02
2022-08-14T02:12:54.309Z,99939.65
2022-08-14T02:15:27.022Z,99932.19
2022-08-14T02:17:55.499Z,99927.69
2022-08-14T02:20:24.950Z,99923.77
2022-08-14T02:22:54.933Z,99926.16
2022-08-14T02:25:24.087Z,99925.45
2022-08-14T02:28:22.506Z,99920.12
2022-08-14T02:30:48.054Z,99915.67
2022-08-14T02:33:22.661Z,99912.63
2022-08-14T02:35:53.349Z,99908.73
2022-08-14T02:38:30.267Z,99904.86
2022-08-14T02:41:08.843Z,99898.67
2022-08-14T02:43:46.438Z,99894.13
2022-08-14T02:46:20.704Z,99897.16
2022-08-14T02:49:03.170Z,99904.56
2022-08-14T02:51:36.551Z,99903.46
2022-08-14T02:54:09.050Z,99905.06
2022-08-14T02:57:15.581Z,99903.75
2022-08-14T02:59:33.880Z,99902.90
2022-08-14T03:02:04.481Z,99901.80
2022-08-14T03:04:34.579Z,99897.50
2022-08-14T03:07:07.499Z,99901.82
2022-08-14T03:09:42.151Z,99903.35
2022-08-14T03:12:32.461Z,99900.49
2022-08-14T03:15:16.437Z,99899.77
2022-08-14T03:17:57.432Z,99903.23
2022-08-14T03:20:30.524Z,99900.83
2022-08-14T03:23:03.026Z,99900.45
2022-08-14T03:25:37.821Z,99898.67
2022-08-14T03:28:14.731Z,99896.90
2022-08-14T03:30:59.897Z,99894.36
2022-08-14T03:33:37.832Z,99891.44
2022-08-14T03:37:29.662Z,99892.93
2022-08-14T03:39:14.262Z,99889.62
2022-08-14T03:41:53.599Z,99888.59
2022-08-14T03:45:18.632Z,99885.91
2022-08-14T03:47:12.294Z,99883.85
2022-08-14T03:49:50.158Z,99883.61
2022-08-14T03:52:38.954Z,99887.76
2022-08-14T03:55:12.276Z,99884.23
2022-08-14T03:57:42.752Z,99881.41
2022-08-14T04:00:42.621Z,99880.81
2022-08-14T04:03:07.859Z,99874.81
2022-08-14T04:05:43.514Z,99877.36
2022-08-14T04:08:29.750Z,99874.77
2022-08-14T04:11:01.638Z,99871.81
2022-08-14T04:13:34.049Z,99871.14
2022-08-14T04:16:12.404Z,99872.91
2022-08-14T04:18:44.877Z,99868.44
2022-08-14T04:21:17.106Z,99871.45
2022-08-14T04:23:57.030Z,99875.30
2022-08-14T04:26:42.405Z,99874.78
2022-08-14T04:29:15.244Z,99871.22
2022-08-14T04:32:57.795Z,99877.29
2022-08-14T04:34:41.835Z,99878.63
2022-08-14T04:37:29.192Z,99877.59
2022-08-14T04:40:16.481Z,99876.84
2022-08-14T04:43:03.566Z,99878.48
2022-08-14T04:45:40.882Z,99878.58
2022-08-14T04:48:39.480Z,99874.63
2022-08-14T04:51:14.571Z,99872.98
2022-08-14T04:53:49.499Z,99871.55
2022-08-14T04:56:30.750Z,99868.20
2022-08-14T04:59:10.693Z,99868.69
2022-08-14T05:01:45.309Z,99868.40
2022-08-14T05:04:21.337Z,99865.38
2022-08-14T05:06:53.619Z,99868.16
2022-08-14T05:09:29.145Z,99863.52
2022-08-14T05:13:11.078Z,99857.45
2022-08-14T05:14:53.597Z,99856.53
2022-08-14T05:17:31.941Z,99855.20
2022-08-14T05:21:04.911Z,99849.21
2022-08-14T05:23:03.643Z,99850.40
2022-08-14T05:25:34.343Z,99851.20
2022-08-14T05:28:19.286Z,99850.48
2022-08-14T05:30:56.232Z,99846.98
2022-08-14T05:33:28.482Z,99847.95
2022-08-14T05:36:01.449Z,99844.19
2022-08-14T05:38:39.230Z,99839.52
2022-08-14T05:41:15.109Z,99840.21
2022-08-14T05:43:48.187Z,99846.08
2022-08-14T05:46:23.089Z,99848.71
2022-08-14T05:48:57.439Z,99846.25
2022-08-14T05:51:28.502Z,99848.27
2022-08-14T05:54:12.772Z,99846.06
2022-08-14T05:56:48.174Z,99842.21
2022-08-14T05:59:16.915Z,99844.11
2022-08-14T06:01:45.500Z,99847.48
2022-08-14T06:04:15.240Z,99846.81
2022-08-14T06:06:44.426Z,99844.69
2022-08-14T06:09:12.970Z,99839.48
2022-08-14T06:11:41.837Z,99836.49
2022-08-14T06:14:21.185Z,99839.89
2022-08-14T06:16:53.264Z,99833.30
2022-08-14T06:19:23.278Z,99831.66
2022-08-14T06:21:58.971Z,99829.34
2022-08-14T06:24:30.414Z,99827.80
2022-08-14T06:27:06.440Z,99827.09
2022-08-14T06:29:39.708Z,99827.80
2022-08-14T06:32:37.246Z,99823.08
2022-08-14T06:35:03.292Z,99822.70
2022-08-14T06:37:53.121Z,99821.19
2022-08-14T06:40:27.876Z,99818.27
2022-08-14T06:43:03.283Z,99819.35
2022-08-14T06:45:34.021Z,99818.77
2022-08-14T06:48:06.234Z,99815.73
2022-08-14T06:50:41.223Z,99816.46
2022-08-14T06:53:16.680Z,99816.75
2022-08-14T06:55:57.918Z,99817.45
2022-08-14T06:58:31.480Z,99815.73
2022-08-14T07:01:27.190Z,99819.06
2022-08-14T07:04:22.864Z,99822.55
2022-08-14T07:06:54.755Z,99823.66
2022-08-14T07:09:44.259Z,99823.45
2022-08-14T07:12:54.962Z,99823.73
2022-08-14T07:15:07.244Z,99816.69
2022-08-14T07:17:52.223Z,99812.48
2022-08-14T07:20:30.542Z,99811.20
2022-08-14T07:23:08.330Z,99804.82
2022-08-14T07:25:42.066Z,99805.26
2022-08-14T07:28:21.108Z,99802.91
2022-08-14T07:31:05.269Z,99804.79
2022-08-14T07:33:51.694Z,99803.64
2022-08-14T07:36:26.430Z,99805.36
2022-08-14T07:39:03.051Z,99802.56
2022-08-14T07:41:42.316Z,99798.36
2022-08-14T07:44:32.333Z,99797.21
2022-08-14T07:47:03.713Z,99795.98
2022-08-14T07:49:34.357Z,99797.79
2022-08-14T07:52:04.172Z,99793.80
2022-08-14T07:54:32.628Z,99790.11
2022-08-14T07:57:06.598Z,99789.98
2022-08-14T07:59:43.691Z,99786.50
2022-08-14T08:02:19.052Z,99786.10
2022-08-14T08:04:58.862Z,99783.14
2022-08-14T08:07:31.495Z,99784.85
2022-08-14T08:10:45.971Z,99781.65
2022-08-14T08:13:24.213Z,99774.27
2022-08-14T08:15:59.365Z,99772.71
2022-08-14T08:18:29.146Z,99770.45
2022-08-14T08:21:00.170Z,99769.34
2022-08-14T08:23:40.077Z,99772.53
2022-08-14T08:26:12.013Z,99772.30
2022-08-14T08:28:43.673Z,99772.36
2022-08-14T08:31:13.798Z,99770.56
2022-08-14T08:33:44.898Z,99766.42
2022-08-14T08:36:19.270Z,99766.75
2022-08-14T08:39:16.446Z,99765.30
2022-08-14T08:41:50.517Z,99762.30
2022-08-14T08:44:32.045Z,99759.13
2022-08-14T08:47:06.842Z,99757.08
2022-08-14T08:49:59.736Z,99756.71
2022-08-14T08:52:32.379Z,99754.52
2022-08-14T08:55:04.910Z,99753.96
2022-08-14T08:57:38.016Z,99746.58
2022-08-14T09:00:27.052Z,99745.36
2022-08-14T09:02:59.845Z,99741.95
2022-08-14T09:05:29.016Z,99736.04
2022-08-14T09:08:30.928Z,99735.10
2022-08-14T09:11:20.014Z,99734.31
2022-08-14T09:13:54.371Z,99735.16
2022-08-14T09:16:26.001Z,99728.79
2022-08-14T09:18:55.990Z,99725.35
2022-08-14T09:21:31.424Z,99720.81
2022-08-14T09:24:27.953Z,99720.35
2022-08-14T09:26:51.035Z,99719.59
2022-08-14T09:29:23.434Z,99720.24
2022-08-14T09:32:00.983Z,99722.04
2022-08-14T09:34:59.062Z,99717.08
2022-08-14T09:37:49.123Z,99713.79
2022-08-14T09:40:55.991Z,99713.70
2022-08-14T09:43:52.189Z,99704.95
2022-08-14T09:46:25.662Z,99702.10
2022-08-14T09:49:12.139Z,99704.14
2022-08-14T09:51:58.407Z,99699.98
2022-08-14T09:54:41.075Z,99706.95
2022-08-14T09:57:24.141Z,99711.22
2022-08-14T09:59:57.099Z,99721.66
2022-08-14T10:02:31.833Z,99735.98
2022-08-14T10:05:12.009Z,99741.73
2022-08-14T10:07:53.790Z,99733.26
2022-08-14T10:10:41.870Z,99739.11
2022-08-14T10:13:26.713Z,99749.31
2022-08-14T10:16:00.330Z,99744.42
2022-08-14T10:18:28.979Z,99739.00
2022-08-14T10:21:01.600Z,99734.98
2022-08-14T10:23:43.572Z,99730.94
2022-08-14T10:26:22.744Z,99729.15
2022-08-14T10:29:18.224Z,99728.98
2022-08-14T10:32:01.845Z,99724.63
2022-08-14T10:34:36.757Z,99721.14
2022-08-14T10:37:14.734Z,99720.13
2022-08-14T10:40:05.277Z,99715.79
2022-08-14T10:42:41.747Z,99717.48
2022-08-14T10:45:21.637Z,99717.08
2022-08-14T10:48:08.912Z,99716.38
2022-08-14T10:50:46.589Z,99712.26
2022-08-14T10:53:15.592Z,99706.67
2022-08-14T10:55:45.754Z,99695.63
2022-08-14T10:58:15.706Z,99695.66
2022-08-14T11:00:57.560Z,99692.23
2022-08-14T11:03:56.399Z,99690.27
2022-08-14T11:06:27.279Z,99689.31
2022-08-14T11:08:56.734Z,99684.43
2022-08-14T11:11:28.538Z,99682.97
2022-08-14T11:14:06.696Z,99680.96
2022-08-14T11:16:40.656Z,99684.36
2022-08-14T11:19:12.178Z,99682.48
2022-08-14T11:21:45.773Z,99681.78
2022-08-14T11:24:50.862Z,99681.22
2022-08-14T11:27:08.206Z,99676.34
2022-08-14T11:29:40.379Z,99675.79
2022-08-14T11:32:09.763Z,99679.10
2022-08-14T11:34:38.692Z,99678.95
2022-08-14T11:37:21.545Z,99680.41
2022-08-14T11:40:02.454Z,99679.89
2022-08-14T11:42:58.845Z,99679.65
2022-08-14T11:45:26.468Z,99681.25
2022-08-14T11:48:10.750Z,99678.83
2022-08-14T11:50:43.359Z,99680.56
2022-08-14T11:53:27.054Z,99678.50
2022-08-14T11:56:06.157Z,99683.31
2022-08-14T11:58:38.014Z,99689.02
2022-08-14T12:01:09.570Z,99682.98
2022-08-14T12:03:52.132Z,99682.44
2022-08-14T12:06:29.064Z,99672.92
2022-08-14T12:09:08.902Z,99674.27
2022-08-14T12:11:46.981Z,99674.56
2022-08-14T12:14:34.819Z,99671.31
2022-08-14T12:17:12.648Z,99672.17
2022-08-14T12:19:58.984Z,99665.54
2022-08-14T12:22:35.942Z,99661.19
2022-08-14T12:25:13.014Z,99663.51
2022-08-14T12:27:53.958Z,99652.48
2022-08-14T12:30:43.682Z,99649.34
2022-08-14T12:33:33.015Z,99646.79
2022-08-14T12:36:10.540Z,99643.19
2022-08-14T12:38:44.989Z,99643.14
2022-08-14T12:41:22.084Z,99643.36
2022-08-14T12:43:57.021Z,99641.67
2022-08-14T12:46:35.110Z,99640.25
2022-08-14T12:49:16.073Z,99636.88
2022-08-14T12:51:57.290Z,99636.34
2022-08-14T12:54:28.398Z,99638.89
2022-08-14T12:57:39.419Z,99639.05
2022-08-14T13:00:25.590Z,99639.52
2022-08-14T13:02:56.895Z,99636.10
2022-08-14T13:05:32.329Z,99633.58
2022-08-14T13:08:10.774Z,99632.82
2022-08-14T13:10:58.286Z,99625.08
2022-08-14T13:13:34.913Z,99626.45
2022-08-14T13:16:20.596Z,99622.81
2022-08-14T13:18:59.053Z,99620.83
2022-08-14T13:21:31.284Z,99621.70
2022-08-14T13:24:22.165Z,99615.11
2022-08-14T13:26:59.271Z,99613.98
2022-08-14T13:29:31.649Z,99612.19
2022-08-14T13:32:00.986Z,99608.66
2022-08-14T13:34:29.868Z,99606.02
2022-08-14T13:37:04.154Z,99600.80
2022-08-14T13:39:36.171Z,99595.73
2022-08-14T13:42:13.862Z,99592.74
2022-08-14T13:44:43.174Z,99587.70
2022-08-14T13:47:14.858Z,99587.02
2022-08-14T13:49:57.855Z,99589.23
2022-08-14T13:52:51.285Z,99583.75
2022-08-14T13:55:29.685Z,99583.67
2022-08-14T13:58:03.250Z,99581.81
2022-08-14T14:00:53.466Z,99580.96
2022-08-14T14:03:30.198Z,99582.15
2022-08-14T14:05:59.270Z,99579.20
2022-08-14T14:08:46.065Z,99576.80
2022-08-14T14:11:24.248Z,99573.29
2022-08-14T14:13:59.632Z,99570.95
2022-08-14T14:16:30.818Z,99566.91
2022-08-14T14:19:09.635Z,99561.89
2022-08-14T14:21:40.543Z,99559.16
2022-08-14T14:24:14.979Z,99557.05
2022-08-14T14:26:50.706Z,99556.92
2022-08-14T14:29:25.982Z,99553.08
2022-08-14T14:31:58.734Z,99554.95
2022-08-14T14:34:33.441Z,99548.19
2022-08-14T14:37:04.854Z,99545.42
2022-08-14T14:39:37.576Z,99538.12
2022-08-14T14:42:13.785Z,99536.88
2022-08-14T14:44:53.269Z,99531.00
2022-08-14T14:47:25.822Z,99528.48
2022-08-14T14:49:56.521Z,99526.27
2022-08-14T14:52:27.247Z,99518.50
2022-08-14T14:54:58.781Z,99512.44
2022-08-14T14:57:35.076Z,99514.46
2022-08-14T15:00:19.539Z,99517.95
2022-08-14T15:02:53.474Z,99523.52
2022-08-14T15:05:28.417Z,99516.27
2022-08-14T15:07:57.921Z,99517.09
2022-08-14T15:10:31.132Z,99521.48
2022-08-14T15:13:07.277Z,99519.80
2022-08-14T15:15:37.822Z,99519.04
2022-08-14T15:18:36.302Z,99516.08
2022-08-14T15:20:58.239Z,99510.84
2022-08-14T15:23:32.253Z,99513.36
2022-08-14T15:26:24.245Z,99512.16
2022-08-14T15:29:04.887Z,99512.86
2022-08-14T15:31:36.095Z,99511.39
2022-08-14T15:34:45.969Z,99502.40
2022-08-14T15:37:01.050Z,99494.38
2022-08-14T15:39:33.771Z,99486.04
2022-08-14T15:42:14.509Z,99487.64
2022-08-14T15:44:58.107Z,99486.08
2022-08-14T15:47:33.174Z,99483.46
2022-08-14T15:50:08.890Z,99477.52
2022-08-14T15:52:38.436Z,99476.77
2022-08-14T15:55:15.066Z,99477.80
2022-08-14T15:58:01.625Z,99482.00
2022-08-14T16:00:55.403Z,99482.27
2022-08-14T16:03:27.778Z,99481.16
2022-08-14T16:06:10.964Z,99477.39
2022-08-14T16:08:58.698Z,99479.61
2022-08-14T16:11:32.819Z,99483.27
2022-08-14T16:14:01.930Z,99483.63
2022-08-14T16:16:51.742Z,99479.27
2022-08-14T16:19:24.946Z,99479.64
2022-08-14T16:22:02.514Z,99475.34
2022-08-14T16:25:00.495Z,99479.65
2022-08-14T16:27:33.696Z,99483.46
2022-08-14T16:30:20.782Z,99483.98
2022-08-14T16:32:57.417Z,99480.53
2022-08-14T16:35:43.433Z,99477.12
2022-08-14T16:38:45.906Z,99473.50
2022-08-14T16:41:22.245Z,99475.87
2022-08-14T16:44:02.387Z,99476.41
2022-08-14T16:46:43.010Z,99479.06
2022-08-14T16:49:20.031Z,99474.39
2022-08-14T16:51:54.956Z,99473.42
2022-08-14T16:54:35.287Z,99477.87
2022-08-14T16:57:27.940Z,99482.13
2022-08-14T17:00:07.430Z,99483.70
2022-08-14T17:03:01.704Z,99486.95
2022-08-14T17:05:37.390Z,99487.84
2022-08-14T17:08:41.991Z,99487.11
2022-08-14T17:11:10.808Z,99486.06
2022-08-14T17:13:58.639Z,99485.57
2022-08-14T17:16:37.490Z,99487.88
2022-08-14T17:19:09.767Z,99497.75
2022-08-14T17:21:47.351Z,99496.42
2022-08-14T17:24:57.174Z,99492.58
2022-08-14T17:27:18.440Z,99487.39
2022-08-14T17:29:56.689Z,99487.02
2022-08-14T17:32:44.199Z,99487.03
2022-08-14T17:35:58.002Z,99489.02
2022-08-14T17:38:38.205Z,99490.60
2022-08-14T17:41:27.109Z,99485.83
2022-08-14T17:44:12.796Z,99480.77
2022-08-14T17:46:50.291Z,99479.80
2022-08-14T17:49:31.949Z,99477.05
2022-08-14T17:52:17.026Z,99476.20
2022-08-14T17:54:52.890Z,99470.77
2022-08-14T17:57:35.518Z,99467.06
2022-08-14T18:00:17.636Z,99465.56
2022-08-14T18:02:50.351Z,99474.01
2022-08-14T18:05:23.463Z,99471.63
2022-08-14T18:08:34.431Z,99471.84
2022-08-14T18:11:00.505Z,99469.09
2022-08-14T18:13:51.103Z,99470.05
2022-08-14T18:16:22.632Z,99471.58
2022-08-14T18:18:52.115Z,99472.96
2022-08-14T18:21:40.315Z,99474.13
2022-08-14T18:24:29.119Z,99475.26
2022-08-14T18:27:23.082Z,99470.43
2022-08-14T18:30:00.338Z,99472.50
2022-08-14T18:32:55.084Z,99475.02
2022-08-14T18:35:45.905Z,99476.09
2022-08-14T18:38:46.446Z,99474.15
2022-08-14T18:41:36.767Z,99474.31
2022-08-14T18:44:10.150Z,99475.13
2022-08-14T18:47:15.040Z,99477.33
2022-08-14T18:49:53.200Z,99480.02
2022-08-14T18:52:49.321Z,99481.42
2022-08-14T18:55:20.953Z,99488.27
2022-08-14T18:57:58.101Z,99490.75
2022-08-14T19:00:32.445Z,99496.95
2022-08-14T19:03:04.357Z,99495.60
2022-08-14T19:05:47.311Z,99492.40
2022-08-14T19:08:22.129Z,99492.30
2022-08-14T19:11:00.825Z,99493.99
2022-08-14T19:13:48.059Z,99493.46
2022-08-14T19:16:26.268Z,99494.64
2022-08-14T19:19:01.431Z,99498.42
2022-08-14T19:21:43.676Z,99496.09
2022-08-14T19:24:27.844Z,99499.17
2022-08-14T19:27:24.830Z,99498.66
2022-08-14T19:30:19.383Z,99498.27
2022-08-14T19:32:56.149Z,99496.25
2022-08-14T19:35:48.689Z,99497.58
2022-08-14T19:38:44.271Z,99494.22
2022-08-14T19:41:29.419Z,99488.95
2022-08-14T19:44:32.326Z,99481.95
2022-08-14T19:47:04.764Z,99476.23
2022-08-14T19:50:30.230Z,99475.06
2022-08-14T19:52:39.540Z,99474.15
2022-08-14T19:55:18.247Z,99472.11
2022-08-14T19:57:57.923Z,99475.53
2022-08-14T20:00:30.191Z,99475.33
2022-08-14T20:03:10.884Z,99481.41
2022-08-14T20:05:46.019Z,99483.92
2022-08-14T20:10:59.771Z,99485.00
2022-08-14T20:12:00.432Z,99485.50
2022-08-14T20:14:29.424Z,99478.70
2022-08-14T20:17:06.240Z,99479.81
2022-08-14T20:19:37.218Z,99472.52
2022-08-14T20:22:37.146Z,99472.53
2022-08-14T20:24:56.524Z,99469.54
2022-08-14T20:27:33.295Z,99473.61
2022-08-14T20:30:33.597Z,99473.11
2022-08-14T20:33:11.074Z,99469.05
2022-08-14T20:35:40.002Z,99465.46
2022-08-14T20:38:32.508Z,99464.80
2022-08-14T20:41:09.476Z,99457.20
2022-08-14T20:44:02.941Z,99451.70
2022-08-14T20:46:39.039Z,99451.98
2022-08-14T20:49:18.857Z,99451.14
2022-08-14T20:51:58.418Z,99452.41
2022-08-14T20:54:36.847Z,99453.77
2022-08-14T20:57:20.104Z,99449.59
2022-08-14T20:59:52.918Z,99444.35
2022-08-14T21:02:46.394Z,99440.50
2022-08-14T21:05:33.313Z,99434.86
2022-08-14T21:08:08.077Z,99435.52
2022-08-14T21:10:44.791Z,99428.55
2022-08-14T21:13:27.318Z,99423.71
2022-08-14T21:16:33.088Z,99424.25
2022-08-14T21:19:00.204Z,99431.09
2022-08-14T21:21:41.149Z,99431.42
2022-08-14T21:24:38.659Z,99432.64
2022-08-14T21:27:12.861Z,99435.50
2022-08-14T21:29:55.950Z,99435.58
2022-08-14T21:32:36.017Z,99435.42
2022-08-14T21:35:15.627Z,99433.37
2022-08-14T21:37:47.678Z,99430.48
2022-08-14T21:40:40.037Z,99422.44
2022-08-14T21:43:18.631Z,99427.31
2022-08-14T21:45:53.951Z,99425.66
2022-08-14T21:48:32.019Z,99431.67
2022-08-14T21:51:54.172Z,99429.86
2022-08-14T21:54:00.321Z,99435.00
2022-08-14T21:56:37.659Z,99429.39
2022-08-14T21:59:17.443Z,99435.68
2022-08-14T22:02:00.802Z,99430.39
2022-08-14T22:04:41.478Z,99429.73
2022-08-14T22:07:16.864Z,99428.06
2022-08-14T22:09:55.504Z,99426.09
2022-08-14T22:12:47.325Z,99422.52
2022-08-14T22:15:18.461Z,99420.83
2022-08-14T22:17:54.206Z,99420.85
2022-08-14T22:20:28.787Z,99422.23
2022-08-14T22:23:03.207Z,99424.48
2022-08-14T22:25:41.249Z,99423.07
2022-08-14T22:28:20.473Z,99427.36
2022-08-14T22:30:55.061Z,99423.79
2022-08-14T22:33:31.082Z,99426.90
2022-08-14T22:36:25.544Z,99425.52
2022-08-14T22:38:55.962Z,99419.73
2022-08-14T22:41:30.529Z,99418.35
2022-08-14T22:44:12.360Z,99418.48
2022-08-14T22:46:43.441Z,99416.65
2022-08-14T22:49:16.890Z,99417.66
2022-08-14T22:52:32.096Z,99419.77
2022-08-14T22:54:56.331Z,99416.45
2022-08-14T22:57:37.886Z,99411.95
2022-08-14T23:00:25.695Z,99410.27
2022-08-14T23:03:04.062Z,99411.63
2022-08-14T23:05:39.871Z,99409.94
2022-08-14T23:09:00.464Z,99406.66
2022-08-14T23:11:03.084Z,99400.16
2022-08-14T23:13:33.112Z,99392.18
2022-08-14T23:16:01.706Z,99378.87
2022-08-14T23:18:30.435Z,99377.55
2022-08-14T23:20:58.994Z,99374.71
2022-08-14T23:23:28.641Z,99377.57
2022-08-14T23:26:47.110Z,99377.95
2022-08-14T23:28:58.438Z,99375.35
2022-08-14T23:31:35.897Z,99372.96
2022-08-14T23:34:11.407Z,99370.45
2022-08-14T23:36:52.993Z,99368.80
2022-08-14T23:39:33.193Z,99369.08
2022-08-14T23:42:09.068Z,99368.13
2022-08-14T23:44:39.424Z,99368.70
2022-08-14T23:47:26.631Z,99373.88
2022-08-14T23:50:03.530Z,99379.01
2022-08-14T23:52:56.256Z,99378.35
2022-08-14T23:55:33.349Z,99380.23
2022-08-14T23:58:01.904Z,99378.82
